Terminal Aerodrome Forecast
Issued by NWS

Home | Current Version | Previous Version | Graphics & Text | Print | Product List | Glossary On
Versions: 1 2 3 4 5 6 7 8 9 10 11 12 13 14 15 16
000
FTUS43 KIWX 231100
TAFSBN
TAF
KSBN 231131Z 2312/2412 16012KT 4SM -SHRA BR OVC005
     FM231600 20010KT 5SM BR OVC015
     FM232100 20006KT 6SM BR SCT020 OVC120
     FM240800 05005KT 4SM -RA OVC025=

USA.gov is the U.S. government's official web portal to all federal, state and local government web resources and services.